Enumclaw, WA

2:17 AM PST on February 10, 2016 (GMT -0800)
Mt. Meadows | | Change Station
CLOSE
Current Station
Personal Weather Station
Location: Enumclaw, WA
Elevation: 728 ft
Nearby Weather Stations

Elev 728 ft 47.19 °N, 122.00 °W | Updated 1 minute ago

Clear
Clear
50.4 °F
Feels Like 50.4 °F
N
4.7
Wind Variable Wind from South

Today
High -- | Low -- °F
--% Chance of Precip.
Yesterday
High -- | Low -- °F
Precip. -- in
Pressure 30.13 in
Visibility 10.0 miles
Clouds Clear
Dew Point 37 °F
Humidity 60%
Rainfall 0.00 in
Snow Depth Not available.
7:21 AM 5:23 PM
Waxing Crescent, 4% visible
METAR KPLU 100955Z AUTO 00000KT 10SM -DZ CLR 05/05 A3013 RMK AO2
Pressure 30.13 in
Visibility 10.0 miles
Clouds Clear
Dew Point 37 °F
Humidity 60%
Rainfall 0.00 in
Snow Depth Not available.
7:21 AM 5:23 PM
Waxing Crescent, 4% visible
METAR KPLU 100955Z AUTO 00000KT 10SM -DZ CLR 05/05 A3013 RMK AO2

10-Day Weather Forecast

Almanac

Astronomy

Feb. 10, 2016 Rise Set
Actual Time
Civil Twilight
Nautical Twilight
Astronomical Twilight
Moon
Length of Visible Light
Length of Day
Tomorrow will be .
, % of the Moon is Illuminated

Today's Extremes

State Highs State Lows

Community

WunderPhotos

Upload Photos

1,891,830 photos uploaded!

WunderBlog® & News

Nearby

Air Quality

  Air Quality AQ Index Pollutant
Not available.

Snow Depth

Station Depth Elevation

Earthquake Activity

City Distance Mag. Time & Date
Minimum magnitude displayed is 2.5.

Coastal Water Temperatures

Place Temperature

Stations

Nearby Weather Stations

Station Location Temp. Windchill Dew Point Humidity Wind Precip. Elev Updated Type
                   

Watches & Warnings

There are currently no watches in effect.